Time;durP1;ratioP1;P1;durP2;ratioP2;P2;SDS_P1;SDS_P2;PMS_P1;PMS_P2;Temp;Humidity;BMP_temperature;BMP_pressure;BME280_temperature;BME280_humidity;BME280_pressure;Samples;Min_cycle;Max_cycle;Signal;HPM_P1;HPM_P2
2023/11/17 00:00:42;;;;;;;69.00;29.88;;;;;;;8.58;100.00;101602.75;5264917;28;20012;-73
2023/11/17 00:03:13;;;;;;;73.18;29.85;;;;;;;8.50;100.00;101607.94;5265713;28;20423;-73
2023/11/17 00:05:43;;;;;;;68.53;28.90;;;;;;;8.44;100.00;101617.34;5261619;28;20017;-73
2023/11/17 00:08:14;;;;;;;69.72;27.58;;;;;;;8.37;100.00;101623.34;5263458;28;20511;-73
2023/11/17 00:10:44;;;;;;;73.82;28.50;;;;;;;8.30;100.00;101625.69;5264717;28;20023;-73
2023/11/17 00:13:15;;;;;;;70.88;29.20;;;;;;;8.23;100.00;101619.16;5267799;28;20103;-73
2023/11/17 00:15:46;;;;;;;74.68;28.30;;;;;;;8.19;100.00;101628.44;5264333;28;20027;-73
2023/11/17 00:18:17;;;;;;;70.72;28.27;;;;;;;8.15;100.00;101630.53;5246243;28;20438;-73
2023/11/17 00:20:48;;;;;;;70.68;27.42;;;;;;;8.12;100.00;101629.94;5262445;28;20625;-73
2023/11/17 00:23:19;;;;;;;66.95;26.60;;;;;;;8.09;100.00;101638.22;5261093;28;20020;-73
2023/11/17 00:25:49;;;;;;;76.72;29.65;;;;;;;8.07;100.00;101642.84;5262866;28;20020;-73
2023/11/17 00:28:20;;;;;;;86.13;30.30;;;;;;;8.07;100.00;101650.84;5263544;28;20016;-73
2023/11/17 00:30:51;;;;;;;72.28;29.88;;;;;;;8.10;100.00;101655.94;5258998;28;20433;-73
2023/11/17 00:33:22;;;;;;;74.68;29.15;;;;;;;8.15;100.00;101654.56;5263928;28;20024;-73
2023/11/17 00:35:52;;;;;;;80.75;30.05;;;;;;;8.21;100.00;101659.38;5261490;28;20689;-73
2023/11/17 00:38:23;;;;;;;86.40;30.73;;;;;;;8.29;100.00;101656.06;5263435;28;20103;-73
2023/11/17 00:40:53;;;;;;;86.28;31.42;;;;;;;8.34;100.00;101661.03;5264319;28;20023;-73
2023/11/17 00:43:25;;;;;;;83.40;32.25;;;;;;;8.38;100.00;101654.44;5264007;28;20075;-73
2023/11/17 00:45:58;;;;;;;86.47;31.20;;;;;;;8.41;100.00;101655.03;5265114;28;20469;-73
2023/11/17 00:48:29;;;;;;;75.65;29.27;;;;;;;8.41;100.00;101648.84;5260779;28;20031;-73
2023/11/17 00:51:01;;;;;;;84.65;30.95;;;;;;;8.42;100.00;101658.56;5267644;28;20024;-73
2023/11/17 00:53:33;;;;;;;95.30;31.25;;;;;;;8.39;100.00;101656.16;5266702;28;20452;-73
2023/11/17 00:56:04;;;;;;;83.82;31.65;;;;;;;8.39;100.00;101673.06;5263409;28;20030;-72
2023/11/17 00:58:35;;;;;;;83.63;32.75;;;;;;;8.42;100.00;101666.59;5262796;28;20492;-73
2023/11/17 01:01:06;;;;;;;76.97;30.88;;;;;;;8.45;100.00;101671.69;5268911;28;20124;-73
2023/11/17 01:03:37;;;;;;;76.82;30.00;;;;;;;8.47;100.00;101667.88;5266445;28;20032;-73
2023/11/17 01:06:07;;;;;;;81.47;31.60;;;;;;;8.50;100.00;101670.28;5270657;28;20020;-73
2023/11/17 01:08:38;;;;;;;96.95;33.80;;;;;;;8.51;100.00;101671.97;5267817;28;20020;-73
2023/11/17 01:11:11;;;;;;;80.70;31.50;;;;;;;8.55;100.00;101675.25;5264007;28;20024;-73
2023/11/17 01:13:42;;;;;;;93.50;33.78;;;;;;;8.58;100.00;101674.97;5264026;28;20034;-73
2023/11/17 01:16:16;;;;;;;85.85;33.30;;;;;;;8.61;100.00;101681.88;5264378;28;20020;-73
2023/11/17 01:18:46;;;;;;;86.55;31.85;;;;;;;8.62;100.00;101684.41;5266453;28;20373;-76
2023/11/17 01:21:17;;;;;;;77.45;30.73;;;;;;;8.63;100.00;101686.09;5267222;28;20122;-73
2023/11/17 01:23:47;;;;;;;79.38;30.63;;;;;;;8.64;100.00;101687.84;5266045;28;20482;-73
2023/11/17 01:26:18;;;;;;;85.80;32.53;;;;;;;8.66;100.00;101685.00;5265643;28;20016;-73
2023/11/17 01:28:48;;;;;;;87.07;32.40;;;;;;;8.66;100.00;101688.53;5267467;28;20023;-73
2023/11/17 01:31:20;;;;;;;86.72;31.75;;;;;;;8.67;100.00;101690.22;5265984;28;20099;-73
2023/11/17 01:33:50;;;;;;;89.63;32.15;;;;;;;8.69;100.00;101693.63;5265765;28;20028;-73
2023/11/17 01:36:21;;;;;;;91.22;32.28;;;;;;;8.73;100.00;101694.19;5268838;28;20042;-73
2023/11/17 01:38:52;;;;;;;84.15;31.20;;;;;;;8.71;100.00;101693.47;5263089;28;20083;-73
2023/11/17 01:41:23;;;;;;;79.00;30.33;;;;;;;8.73;100.00;101694.19;5266366;28;20019;-73
2023/11/17 01:43:54;;;;;;;80.28;31.35;;;;;;;8.75;100.00;101689.56;5265509;28;20028;-73
2023/11/17 01:46:25;;;;;;;94.75;32.30;;;;;;;8.74;100.00;101677.19;5262054;28;20404;-73
2023/11/17 01:48:56;;;;;;;86.53;31.55;;;;;;;8.77;100.00;101696.47;5269425;28;20028;-73
2023/11/17 01:51:27;;;;;;;95.80;33.28;;;;;;;8.78;100.00;101691.94;5263670;28;20382;-73
2023/11/17 01:53:58;;;;;;;91.78;32.67;;;;;;;8.80;100.00;101692.69;5267630;28;20024;-73
2023/11/17 01:56:30;;;;;;;100.03;35.85;;;;;;;8.78;100.00;101689.28;5256606;28;20104;-73
2023/11/17 01:59:01;;;;;;;92.60;35.30;;;;;;;8.74;100.00;101696.75;5265626;28;20023;-73
2023/11/17 02:01:31;;;;;;;90.15;36.08;;;;;;;8.76;100.00;101688.56;5266556;28;20016;-73
2023/11/17 02:04:02;;;;;;;93.82;37.17;;;;;;;8.75;100.00;101684.22;5263785;28;20111;-73
2023/11/17 02:06:40;;;;;;;102.30;37.20;;;;;;;8.73;100.00;101683.47;5266146;28;20023;-73
2023/11/17 02:09:21;;;;;;;84.90;35.13;;;;;;;8.72;100.00;101692.50;5257680;28;20024;-73
2023/11/17 02:12:23;;;;;;;94.07;31.80;;;;;;;8.70;100.00;101681.09;5263411;28;20473;-73
2023/11/17 02:15:08;;;;;;;92.75;35.28;;;;;;;8.69;100.00;101679.41;5264602;28;20406;-73
2023/11/17 02:17:44;;;;;;;101.60;36.92;;;;;;;8.68;100.00;101683.03;5262153;28;20061;-73
2023/11/17 02:20:19;;;;;;;94.97;35.22;;;;;;;8.65;100.00;101688.66;5263044;28;20379;-73
2023/11/17 02:23:10;;;;;;;98.57;34.67;;;;;;;8.61;100.00;101681.88;5267082;28;20021;-73
2023/11/17 02:26:17;;;;;;;99.90;34.75;;;;;;;8.56;100.00;101684.97;5265222;28;20081;-73
2023/11/17 02:28:59;;;;;;;90.63;32.95;;;;;;;8.52;100.00;101700.41;5263606;28;20024;-73
2023/11/17 02:31:32;;;;;;;86.85;33.35;;;;;;;8.50;100.00;101690.84;5260879;28;20024;-73
2023/11/17 02:34:06;;;;;;;104.65;37.90;;;;;;;8.49;100.00;101690.00;5260853;28;20138;-73
2023/11/17 02:36:38;;;;;;;122.28;40.25;;;;;;;8.50;100.00;101690.84;5264070;28;20039;-73
2023/11/17 02:39:15;;;;;;;104.80;39.20;;;;;;;8.49;100.00;101684.66;5263905;28;20024;-73
2023/11/17 02:41:56;;;;;;;105.45;39.42;;;;;;;8.52;100.00;101694.22;5265532;28;20481;-73
2023/11/17 02:44:29;;;;;;;103.88;39.90;;;;;;;8.53;100.00;101688.75;5262144;28;20142;-73
2023/11/17 02:47:03;;;;;;;102.97;37.65;;;;;;;8.57;100.00;101682.13;5264038;28;20444;-73
2023/11/17 02:49:34;;;;;;;101.22;38.35;;;;;;;8.64;100.00;101684.31;5264231;28;20061;-73
2023/11/17 02:52:11;;;;;;;113.10;38.90;;;;;;;8.66;100.00;101683.19;5270260;28;20020;-73
2023/11/17 02:54:42;;;;;;;109.85;40.13;;;;;;;8.70;100.00;101686.44;5268948;28;20492;-74
2023/11/17 02:57:15;;;;;;;112.75;40.22;;;;;;;8.74;100.00;101685.19;5264055;28;20028;-74
2023/11/17 02:59:46;;;;;;;106.05;39.25;;;;;;;8.74;100.00;101683.38;5262340;28;20404;-73
2023/11/17 03:02:19;;;;;;;115.25;39.03;;;;;;;8.76;100.00;101680.56;5268554;28;20031;-73
2023/11/17 03:04:52;;;;;;;108.35;38.53;;;;;;;8.77;100.00;101671.53;5268430;28;20020;-73
2023/11/17 03:07:23;;;;;;;121.30;40.47;;;;;;;8.78;100.00;101683.94;5268079;28;20020;-74
2023/11/17 03:09:53;;;;;;;110.15;39.55;;;;;;;8.79;100.00;101680.28;5264383;28;20034;-73
2023/11/17 03:12:27;;;;;;;105.00;39.17;;;;;;;8.79;100.00;101680.28;5268220;28;20515;-74
2023/11/17 03:14:58;;;;;;;106.78;38.05;;;;;;;8.79;100.00;101673.13;5267808;28;20077;-74
2023/11/17 03:17:30;;;;;;;117.53;40.03;;;;;;;8.80;100.00;101677.47;5268192;28;20020;-74
2023/11/17 03:20:01;;;;;;;98.75;37.97;;;;;;;8.80;100.00;101677.47;5266960;28;20106;-75
2023/11/17 03:22:32;;;;;;;111.68;41.35;;;;;;;8.82;100.00;101680.00;5266405;28;20058;-75
2023/11/17 03:25:03;;;;;;;103.43;38.13;;;;;;;8.81;100.00;101672.97;5266540;28;20103;-75
2023/11/17 03:27:33;;;;;;;121.97;42.92;;;;;;;8.84;100.00;101662.00;5268224;28;20500;-75
2023/11/17 03:30:09;;;;;;;110.88;39.60;;;;;;;8.85;100.00;101660.19;5269191;28;20028;-75
2023/11/17 03:32:40;;;;;;;121.18;39.58;;;;;;;8.84;100.00;101661.16;5261298;28;20056;-75
2023/11/17 03:35:10;;;;;;;113.70;39.78;;;;;;;8.84;100.00;101659.34;5267556;28;20369;-75
2023/11/17 03:37:41;;;;;;;111.80;39.10;;;;;;;8.86;100.00;101651.16;5266924;28;20022;-75
2023/11/17 03:40:12;;;;;;;127.03;40.30;;;;;;;8.84;100.00;101659.34;5266803;28;20465;-75
2023/11/17 03:42:42;;;;;;;111.60;39.05;;;;;;;8.84;100.00;101653.97;5267713;28;20530;-75
2023/11/17 03:45:15;;;;;;;105.75;39.30;;;;;;;8.81;100.00;101656.91;5268666;28;20022;-75
2023/11/17 03:47:45;;;;;;;112.70;40.28;;;;;;;8.81;100.00;101646.22;5267525;28;20067;-75
2023/11/17 03:50:16;;;;;;;117.35;40.60;;;;;;;8.81;100.00;101648.88;5265064;28;20556;-75
2023/11/17 03:52:46;;;;;;;115.18;41.90;;;;;;;8.80;100.00;101641.84;5262981;28;20038;-75
2023/11/17 03:55:17;;;;;;;122.80;40.00;;;;;;;8.78;100.00;101644.63;5261447;28;20039;-75
2023/11/17 03:57:48;;;;;;;128.65;41.90;;;;;;;8.73;100.00;101636.16;5261308;28;20366;-75
2023/11/17 04:00:22;;;;;;;125.70;41.85;;;;;;;8.69;100.00;101631.25;5264958;28;20020;-75
2023/11/17 04:02:53;;;;;;;125.32;42.63;;;;;;;8.67;100.00;101630.53;5265032;28;20020;-74
2023/11/17 04:05:23;;;;;;;122.22;40.10;;;;;;;8.67;100.00;101635.88;5267170;28;20026;-75
2023/11/17 04:07:55;;;;;;;128.13;41.00;;;;;;;8.63;100.00;101639.78;5265232;28;20496;-75
2023/11/17 04:10:25;;;;;;;126.50;40.70;;;;;;;8.63;100.00;101645.16;5264228;28;20496;-75
2023/11/17 04:12:56;;;;;;;133.38;42.60;;;;;;;8.62;100.00;101638.94;5266668;28;20110;-75
2023/11/17 04:15:26;;;;;;;152.38;45.60;;;;;;;8.60;100.00;101635.56;5265450;28;20024;-75
2023/11/17 04:17:57;;;;;;;143.85;44.17;;;;;;;8.63;100.00;101640.63;5263066;28;20397;-75
2023/11/17 04:20:27;;;;;;;144.65;45.63;;;;;;;8.65;100.00;101633.34;5265163;28;20145;-75
2023/11/17 04:22:58;;;;;;;146.00;45.88;;;;;;;8.68;100.00;101629.53;5264834;28;20422;-75
2023/11/17 04:25:29;;;;;;;146.43;45.22;;;;;;;8.72;100.00;101628.28;5266516;28;20020;-75
2023/11/17 04:27:59;;;;;;;156.57;45.13;;;;;;;8.71;100.00;101630.13;5263396;28;20374;-75
2023/11/17 04:30:30;;;;;;;149.40;44.47;;;;;;;8.73;100.00;101628.16;5265178;28;20099;-75
2023/11/17 04:33:00;;;;;;;139.10;42.45;;;;;;;8.74;100.00;101634.38;5264422;28;20525;-75
2023/11/17 04:35:31;;;;;;;143.05;42.65;;;;;;;8.78;100.00;101633.09;5264995;28;20023;-75
2023/11/17 04:38:02;;;;;;;144.65;43.88;;;;;;;8.80;100.00;101641.84;5264076;28;20024;-75
2023/11/17 04:40:33;;;;;;;153.60;43.97;;;;;;;8.77;100.00;101636.75;5258099;28;20088;-75
2023/11/17 04:43:06;;;;;;;149.98;45.03;;;;;;;8.76;100.00;101627.88;5260206;28;20021;-75
2023/11/17 04:45:42;;;;;;;148.65;45.33;;;;;;;8.76;100.00;101622.53;5264621;28;20024;-75
2023/11/17 04:48:13;;;;;;;156.32;45.55;;;;;;;8.76;100.00;101627.88;5263698;28;20028;-75
2023/11/17 04:50:44;;;;;;;159.95;43.38;;;;;;;8.81;100.00;101630.16;5263511;28;20486;-75
2023/11/17 04:53:14;;;;;;;131.95;40.55;;;;;;;8.81;100.00;101627.47;5263399;28;20026;-75
2023/11/17 04:55:48;;;;;;;150.02;41.75;;;;;;;8.84;100.00;101618.34;5264342;28;20028;-75
2023/11/17 04:58:19;;;;;;;150.52;42.35;;;;;;;8.87;100.00;101628.75;5263239;28;20050;-75
2023/11/17 05:00:49;;;;;;;151.48;44.10;;;;;;;8.89;100.00;101621.47;5266382;28;20107;-75
2023/11/17 05:03:20;;;;;;;141.60;41.17;;;;;;;8.87;100.00;101618.91;5265777;28;20028;-75
2023/11/17 05:05:50;;;;;;;141.65;42.58;;;;;;;8.87;100.00;101612.72;5266689;28;20012;-75
2023/11/17 05:08:21;;;;;;;144.25;42.70;;;;;;;8.87;100.00;101616.22;5255501;28;20050;-74
2023/11/17 05:10:51;;;;;;;147.90;42.40;;;;;;;8.89;100.00;101616.97;5267745;28;20020;-75
2023/11/17 05:13:22;;;;;;;158.52;42.67;;;;;;;8.90;100.00;101613.28;5264307;28;20016;-76
2023/11/17 05:15:52;;;;;;;151.82;42.85;;;;;;;8.89;100.00;101611.59;5265743;28;20050;-73
2023/11/17 05:18:23;;;;;;;142.93;43.42;;;;;;;8.89;100.00;101611.59;5265016;28;20068;-73
2023/11/17 05:20:53;;;;;;;147.43;42.10;;;;;;;8.89;100.00;101616.97;5264392;28;20051;-73
2023/11/17 05:23:24;;;;;;;155.85;43.42;;;;;;;8.88;100.00;101615.25;5265455;28;20032;-74
2023/11/17 05:25:54;;;;;;;144.90;38.85;;;;;;;8.88;100.00;101615.25;5265731;28;20012;-73
2023/11/17 05:28:27;;;;;;;152.80;39.38;;;;;;;8.89;100.00;101616.13;5263532;28;20044;-73
2023/11/17 05:31:01;;;;;;;140.10;38.50;;;;;;;8.88;100.00;101617.91;5261379;28;20059;-73
2023/11/17 05:33:32;;;;;;;135.32;37.30;;;;;;;8.92;100.00;101622.03;5263400;28;20048;-75
2023/11/17 05:36:03;;;;;;;140.75;36.58;;;;;;;8.92;100.00;101616.66;5260011;28;20084;-75
2023/11/17 05:38:33;;;;;;;130.15;37.15;;;;;;;8.95;100.00;101616.41;5260926;28;20024;-75
2023/11/17 05:41:05;;;;;;;130.85;37.35;;;;;;;8.95;100.00;101619.09;5263731;28;20020;-75
2023/11/17 05:43:35;;;;;;;124.47;35.92;;;;;;;8.97;100.00;101621.63;5262062;28;20024;-75
2023/11/17 05:46:06;;;;;;;123.50;35.47;;;;;;;9.00;100.00;101616.00;5263605;28;20028;-75
2023/11/17 05:48:36;;;;;;;137.07;37.85;;;;;;;9.03;100.00;101624.56;5263667;28;20024;-76
2023/11/17 05:51:09;;;;;;;137.45;40.30;;;;;;;9.05;100.00;101622.63;5263307;28;20051;-76
2023/11/17 05:53:40;;;;;;;121.60;36.47;;;;;;;9.05;100.00;101619.09;5263812;28;20407;-76
2023/11/17 05:56:11;;;;;;;131.65;36.38;;;;;;;9.05;100.00;101627.13;5263441;28;20016;-75
2023/11/17 05:58:42;;;;;;;121.95;35.17;;;;;;;9.10;100.00;101629.41;5257053;28;20028;-75
2023/11/17 06:01:13;;;;;;;131.57;37.80;;;;;;;9.13;100.00;101629.09;5264073;28;20026;-76
2023/11/17 06:03:44;;;;;;;122.88;36.35;;;;;;;9.17;100.00;101639.41;5263327;28;20107;-75
2023/11/17 06:06:14;;;;;;;121.10;36.05;;;;;;;9.17;100.00;101643.91;5256618;28;20034;-75
2023/11/17 06:08:45;;;;;;;119.50;34.20;;;;;;;9.16;100.00;101651.09;5257910;28;20063;-75
2023/11/17 06:11:22;;;;;;;125.60;36.33;;;;;;;9.14;100.00;101654.91;5265028;28;20065;-75
2023/11/17 06:13:53;;;;;;;116.07;34.58;;;;;;;9.12;100.00;101649.69;5259611;28;20035;-76
2023/11/17 06:16:24;;;;;;;112.82;34.75;;;;;;;9.14;100.00;101652.25;5258720;28;20465;-76
2023/11/17 06:18:54;;;;;;;116.15;36.67;;;;;;;9.15;100.00;101662.81;5258162;28;20032;-76
2023/11/17 06:21:26;;;;;;;133.73;37.33;;;;;;;9.14;100.00;101661.13;5257998;28;20024;-76
2023/11/17 06:23:56;;;;;;;124.10;36.90;;;;;;;9.12;100.00;101670.25;5267581;28;20020;-76
2023/11/17 06:26:27;;;;;;;103.95;34.53;;;;;;;9.11;100.00;101668.56;5267635;28;20054;-76
2023/11/17 06:28:59;;;;;;;103.55;33.63;;;;;;;9.09;100.00;101684.78;5264233;28;20020;-76
2023/11/17 06:31:29;;;;;;;104.43;33.30;;;;;;;9.10;100.00;101688.28;5260164;28;20031;-76
2023/11/17 06:34:00;;;;;;;102.82;33.58;;;;;;;9.11;100.00;101685.47;5258151;28;20039;-76
2023/11/17 06:36:31;;;;;;;105.72;34.58;;;;;;;9.04;100.00;101695.88;5260149;28;20020;-76
2023/11/17 06:39:07;;;;;;;102.32;32.88;;;;;;;9.03;100.00;101696.84;5253345;28;20115;-75
2023/11/17 06:41:38;;;;;;;108.03;35.13;;;;;;;9.07;100.00;101710.81;5255261;28;20039;-76
2023/11/17 06:44:10;;;;;;;96.25;31.30;;;;;;;8.98;100.00;101712.47;5265267;28;20020;-75
2023/11/17 06:46:41;;;;;;;90.57;31.10;;;;;;;9.06;100.00;101714.47;5254114;28;20035;-76
2023/11/17 06:49:14;;;;;;;87.47;29.60;;;;;;;8.96;100.00;101716.28;5256012;28;20023;-76
2023/11/17 06:51:48;;;;;;;81.50;28.85;;;;;;;9.00;100.00;101715.88;5255411;28;20036;-76
2023/11/17 06:54:19;;;;;;;87.25;26.77;;;;;;;8.99;100.00;101718.69;5254350;28;20043;-76
2023/11/17 06:56:50;;;;;;;71.93;24.80;;;;;;;9.00;100.00;101726.56;5262504;28;20047;-76
2023/11/17 06:59:20;;;;;;;67.82;24.42;;;;;;;8.88;100.00;101729.47;5260792;28;20024;-75
2023/11/17 07:01:51;;;;;;;78.20;25.92;;;;;;;8.91;100.00;101738.06;5268075;28;20382;-76
2023/11/17 07:04:22;;;;;;;65.43;22.52;;;;;;;8.81;100.00;101745.22;5267156;28;20027;-76
2023/11/17 07:06:53;;;;;;;58.03;22.77;;;;;;;8.83;100.00;101751.25;5260596;28;20017;-76
2023/11/17 07:09:30;;;;;;;66.65;23.05;;;;;;;8.87;100.00;101749.19;5264518;28;20069;-75
2023/11/17 07:12:02;;;;;;;60.97;22.98;;;;;;;8.86;100.00;101755.53;5267818;28;20366;-76
2023/11/17 07:14:35;;;;;;;60.15;22.48;;;;;;;8.84;100.00;101757.50;5264979;28;20040;-76
2023/11/17 07:17:06;;;;;;;61.50;22.83;;;;;;;8.82;100.00;101768.31;5268416;28;20020;-76
2023/11/17 07:19:37;;;;;;;70.15;22.63;;;;;;;8.82;100.00;101770.97;5267921;28;20038;-76
2023/11/17 07:22:08;;;;;;;70.72;24.38;;;;;;;8.80;100.00;101771.13;5267230;28;20028;-76
2023/11/17 07:24:39;;;;;;;203.85;84.00;;;;;;;8.84;100.00;101777.06;5267402;28;20034;-76
2023/11/17 07:27:11;;;;;;;76.47;29.13;;;;;;;8.85;100.00;101792.13;5267225;28;20040;-76
2023/11/17 07:29:43;;;;;;;173.40;96.22;;;;;;;8.87;100.00;101795.50;5266200;28;20107;-75
2023/11/17 07:32:13;;;;;;;78.88;29.45;;;;;;;8.87;100.00;101797.34;5266611;28;20036;-75
2023/11/17 07:34:44;;;;;;;91.30;38.45;;;;;;;8.95;100.00;101810.94;5263895;28;20208;-75
2023/11/17 07:37:15;;;;;;;81.03;29.17;;;;;;;8.95;100.00;101808.25;5262398;28;20728;-75
2023/11/17 07:39:45;;;;;;;83.38;29.23;;;;;;;8.99;100.00;101820.41;5256942;28;20038;-75
2023/11/17 07:42:17;;;;;;;81.78;29.02;;;;;;;8.97;100.00;101822.34;5266918;28;20044;-75
2023/11/17 07:44:47;;;;;;;82.53;28.98;;;;;;;9.02;100.00;101818.28;5258837;28;20090;-76
2023/11/17 07:47:23;;;;;;;81.18;31.27;;;;;;;9.04;100.00;101824.38;5264464;28;20107;-75
2023/11/17 07:49:54;;;;;;;76.65;28.63;;;;;;;9.06;100.00;101835.78;5252928;28;20476;-75
2023/11/17 07:52:25;;;;;;;77.72;29.65;;;;;;;9.02;100.00;101825.47;5267750;28;20019;-75
2023/11/17 07:54:56;;;;;;;72.40;27.27;;;;;;;9.02;100.00;101828.13;5262046;28;20024;-76
2023/11/17 07:57:26;;;;;;;70.25;26.80;;;;;;;9.09;100.00;101837.34;5260429;28;20016;-75
2023/11/17 07:59:57;;;;;;;76.78;27.00;;;;;;;9.08;100.00;101839.16;5263190;28;20451;-75
2023/11/17 08:02:28;;;;;;;72.57;27.58;;;;;;;9.09;100.00;101840.03;5263610;28;20027;-75
2023/11/17 08:04:59;;;;;;;77.07;28.52;;;;;;;9.11;100.00;101840.75;5263763;28;20020;-75
2023/11/17 08:07:31;;;;;;;73.97;27.70;;;;;;;9.15;100.00;101841.31;5266149;28;20433;-75
2023/11/17 08:10:01;;;;;;;72.65;25.90;;;;;;;9.20;100.00;101844.44;5257982;28;20028;-76
2023/11/17 08:12:32;;;;;;;76.75;26.73;;;;;;;9.22;100.00;101848.69;5262426;28;20019;-75
2023/11/17 08:15:05;;;;;;;71.57;25.83;;;;;;;9.25;100.00;101847.59;5265831;28;20481;-75
2023/11/17 08:17:37;;;;;;;82.53;30.58;;;;;;;9.29;100.00;101851.69;5267760;28;20058;-75
2023/11/17 08:20:14;;;;;;;77.78;28.40;;;;;;;9.32;100.00;101856.75;5262111;28;20032;-75
2023/11/17 08:22:46;;;;;;;87.18;28.08;;;;;;;9.32;100.00;101859.44;5263688;28;20114;-75
2023/11/17 08:25:16;;;;;;;80.90;34.20;;;;;;;9.39;100.00;101863.31;5261790;28;20052;-75
2023/11/17 08:27:47;;;;;;;84.50;34.90;;;;;;;9.43;100.00;101864.69;5263610;28;20055;-75
2023/11/17 08:30:17;;;;;;;81.03;34.67;;;;;;;9.40;100.00;101873.03;5261824;28;20036;-76
2023/11/17 08:32:48;;;;;;;90.07;32.58;;;;;;;9.39;100.00;101871.34;5265573;28;20465;-76
2023/11/17 08:35:21;;;;;;;97.45;35.50;;;;;;;9.34;100.00;101877.09;5262625;28;20028;-75
2023/11/17 08:37:52;;;;;;;92.10;33.83;;;;;;;9.33;100.00;101888.75;5265754;28;20027;-75
2023/11/17 08:40:24;;;;;;;106.22;38.72;;;;;;;9.32;100.00;101883.53;5261636;28;20350;-75
2023/11/17 08:42:55;;;;;;;100.32;34.58;;;;;;;9.26;100.00;101892.13;5263483;28;20088;-75
2023/11/17 08:45:25;;;;;;;103.30;34.88;;;;;;;9.21;100.00;101894.34;5262232;28;20008;-75
2023/11/17 08:47:56;;;;;;;106.30;35.25;;;;;;;9.23;100.00;101900.41;5258983;28;20027;-76
2023/11/17 08:50:26;;;;;;;102.47;34.63;;;;;;;9.22;100.00;101899.56;5262464;28;20020;-75
2023/11/17 08:52:57;;;;;;;114.45;36.00;;;;;;;9.30;100.00;101889.03;5263312;28;20035;-75
2023/11/17 08:55:28;;;;;;;104.53;35.78;;;;;;;9.27;100.00;101891.13;5263773;28;20024;-75
2023/11/17 08:57:59;;;;;;;101.93;35.00;;;;;;;9.30;100.00;101886.38;5261297;28;20035;-75
2023/11/17 09:00:30;;;;;;;92.82;32.22;;;;;;;9.30;100.00;101898.91;5262491;28;20102;-75
2023/11/17 09:03:01;;;;;;;92.32;33.00;;;;;;;9.32;100.00;101900.47;5261052;28;20026;-75
2023/11/17 09:05:31;;;;;;;98.10;33.47;;;;;;;9.37;100.00;101892.03;5264820;28;20536;-75
2023/11/17 09:08:02;;;;;;;157.82;66.13;;;;;;;9.42;100.00;101897.00;5263848;28;20143;-75
2023/11/17 09:10:33;;;;;;;147.90;60.47;;;;;;;9.43;100.00;101899.53;5261972;28;20024;-75
2023/11/17 09:13:05;;;;;;;91.15;32.00;;;;;;;9.37;100.00;101897.38;5266400;28;20581;-75
2023/11/17 09:15:38;;;;;;;87.78;35.38;;;;;;;9.39;100.00;101908.81;5263756;28;20028;-75
2023/11/17 09:18:08;;;;;;;106.40;45.22;;;;;;;9.34;100.00;101909.22;5263521;28;20418;-75
2023/11/17 09:20:40;;;;;;;89.35;33.97;;;;;;;9.37;100.00;101912.59;5265226;28;20034;-75
2023/11/17 09:23:10;;;;;;;84.30;30.65;;;;;;;9.44;100.00;101909.28;5264631;28;20047;-75
2023/11/17 09:25:41;;;;;;;92.05;32.03;;;;;;;9.46;100.00;101919.84;5265077;28;20327;-75
2023/11/17 09:28:12;;;;;;;84.95;30.52;;;;;;;9.44;100.00;101925.34;5262411;28;20032;-75
2023/11/17 09:30:43;;;;;;;90.57;31.10;;;;;;;9.52;100.00;101919.31;5266052;28;20019;-75
2023/11/17 09:33:13;;;;;;;84.15;31.25;;;;;;;9.70;100.00;101923.06;5264712;28;20031;-75
2023/11/17 09:35:44;;;;;;;77.03;30.48;;;;;;;9.80;100.00;101929.31;5263975;28;20044;-75
2023/11/17 09:38:16;;;;;;;77.85;28.85;;;;;;;9.90;100.00;101928.53;5264243;28;20489;-76
2023/11/17 09:40:47;;;;;;;68.55;28.70;;;;;;;9.94;100.00;101930.78;5259001;28;20028;-75
2023/11/17 09:43:20;;;;;;;72.47;29.92;;;;;;;9.86;100.00;101935.97;5264959;28;20504;-75
2023/11/17 09:45:52;;;;;;;67.28;27.55;;;;;;;9.87;100.00;101945.69;5259148;28;20492;-75
2023/11/17 09:48:24;;;;;;;73.80;27.73;;;;;;;9.88;100.00;101950.06;5257559;28;20028;-75
2023/11/17 09:50:56;;;;;;;73.63;29.80;;;;;;;9.90;100.00;101944.59;5263929;28;20077;-75
2023/11/17 09:53:27;;;;;;;71.53;28.50;;;;;;;9.89;100.00;101953.59;5262205;28;21490;-75
2023/11/17 09:55:58;;;;;;;78.78;28.83;;;;;;;9.90;100.00;101958.00;5264203;28;20046;-75
2023/11/17 09:58:30;;;;;;;69.68;28.38;;;;;;;9.86;100.00;101952.91;5266021;28;20017;-75
2023/11/17 10:01:02;;;;;;;77.85;31.70;;;;;;;9.93;100.00;101955.88;5269405;28;20032;-75
2023/11/17 10:03:34;;;;;;;80.32;31.65;;;;;;;9.97;100.00;101953.78;5270258;28;20027;-75
2023/11/17 10:06:06;;;;;;;77.30;29.40;;;;;;;9.98;100.00;101950.97;5269030;28;20061;-75
2023/11/17 10:08:39;;;;;;;82.53;30.35;;;;;;;9.95;100.00;101955.75;5269398;28;20019;-75
2023/11/17 10:11:14;;;;;;;75.75;28.65;;;;;;;9.95;100.00;101961.13;5266411;28;20020;-75
2023/11/17 10:13:47;;;;;;;78.03;28.73;;;;;;;9.99;100.00;101963.41;5268018;28;20082;-76
2023/11/17 10:16:19;;;;;;;77.43;31.10;;;;;;;10.06;100.00;101967.22;5268530;28;20067;-76
2023/11/17 10:18:51;;;;;;;86.68;36.85;;;;;;;10.10;100.00;101973.19;5266310;28;20012;-75
2023/11/17 10:21:22;;;;;;;121.90;76.00;;;;;;;10.15;100.00;101968.25;5269426;28;20108;-76
2023/11/17 10:23:53;;;;;;;68.80;30.50;;;;;;;10.11;100.00;101967.66;5267573;28;20067;-75
2023/11/17 10:26:25;;;;;;;62.10;25.63;;;;;;;10.15;100.00;101981.66;5264502;28;20020;-75
2023/11/17 10:28:59;;;;;;;66.85;26.70;;;;;;;10.09;100.00;101977.69;5266645;28;20027;-76
2023/11/17 10:31:32;;;;;;;60.45;25.17;;;;;;;10.11;100.00;101978.41;5265637;28;20035;-75
2023/11/17 10:34:11;;;;;;;60.70;24.05;;;;;;;10.17;100.00;101982.38;5267056;28;20024;-75
2023/11/17 10:36:56;;;;;;;58.30;25.52;;;;;;;10.16;100.00;101983.34;5266453;28;20025;-76
2023/11/17 10:39:27;;;;;;;68.13;24.73;;;;;;;10.11;100.00;101986.44;5259172;28;20474;-75
2023/11/17 10:42:15;;;;;;;59.45;24.95;;;;;;;10.18;100.00;101989.41;5266724;28;20028;-76
2023/11/17 10:44:46;;;;;;;57.75;24.05;;;;;;;10.25;100.00;101993.31;5264624;28;20408;-75
2023/11/17 10:47:17;;;;;;;55.85;22.85;;;;;;;10.20;100.00;101997.34;5264466;28;21355;-75
2023/11/17 10:50:06;;;;;;;48.97;21.48;;;;;;;10.26;100.00;101991.47;5262825;28;20016;-75
2023/11/17 10:52:37;;;;;;;56.28;23.73;;;;;;;10.28;100.00;101997.53;5267375;28;20744;-75
2023/11/17 10:55:07;;;;;;;51.55;21.80;;;;;;;10.28;100.00;101993.00;5264670;28;20020;-75
2023/11/17 10:57:40;;;;;;;55.13;23.25;;;;;;;10.29;100.00;101988.50;5266368;28;20028;-75
2023/11/17 11:00:21;;;;;;;44.35;20.33;;;;;;;10.26;100.00;101976.22;5265214;28;20024;-75
2023/11/17 11:02:53;;;;;;;46.53;20.73;;;;;;;10.35;100.00;101979.94;5261434;28;20020;-75
2023/11/17 11:05:25;;;;;;;51.55;22.95;;;;;;;10.36;100.00;101977.09;5265926;28;20036;-75
2023/11/17 11:07:57;;;;;;;42.47;19.63;;;;;;;10.43;100.00;101972.00;5265666;28;20198;-75
2023/11/17 11:10:28;;;;;;;46.38;23.05;;;;;;;10.43;100.00;101982.75;5258359;28;20355;-75
2023/11/17 11:13:02;;;;;;;39.78;18.25;;;;;;;10.41;100.00;101982.03;5259947;28;20065;-75
2023/11/17 11:15:33;;;;;;;44.40;18.65;;;;;;;10.49;100.00;101990.28;5266123;28;20049;-75
2023/11/17 11:18:06;;;;;;;46.03;20.13;;;;;;;10.61;100.00;101983.78;5265232;28;20491;-75
2023/11/17 11:20:38;;;;;;;44.83;19.58;;;;;;;10.71;100.00;101977.59;5266521;28;20416;-75
2023/11/17 11:23:10;;;;;;;43.83;19.52;;;;;;;10.92;100.00;101977.44;5265787;28;20031;-75
2023/11/17 11:25:42;;;;;;;43.90;19.38;;;;;;;11.16;100.00;101972.50;5263010;28;20020;-75